createdAt,value
2019-01-16T00:00:53.566Z,8.40
2019-01-16T00:03:31.101Z,8.50
2019-01-16T00:06:19.664Z,8.50
2019-01-16T00:09:18.886Z,8.50
2019-01-16T00:12:07.003Z,8.50
2019-01-16T00:15:08.179Z,8.50
2019-01-16T00:17:55.477Z,8.50
2019-01-16T00:20:49.456Z,8.50
2019-01-16T00:23:57.111Z,8.50
2019-01-16T00:26:59.207Z,8.50
2019-01-16T00:29:57.385Z,8.50
2019-01-16T00:32:45.357Z,8.50
2019-01-16T00:35:40.822Z,8.50
2019-01-16T00:38:25.105Z,8.50
2019-01-16T00:41:13.275Z,8.50
2019-01-16T00:44:15.074Z,8.50
2019-01-16T00:47:06.452Z,8.60
2019-01-16T00:49:55.757Z,8.50
2019-01-16T00:52:43.939Z,8.60
2019-01-16T00:55:24.969Z,8.60
2019-01-16T00:58:17.348Z,8.50
2019-01-16T01:01:13.550Z,8.60
2019-01-16T01:04:00.931Z,8.60
2019-01-16T01:06:50.487Z,8.50
2019-01-16T01:09:38.380Z,8.50
2019-01-16T01:12:26.119Z,8.60
2019-01-16T01:15:19.336Z,8.60
2019-01-16T01:18:11.446Z,8.50
2019-01-16T01:20:59.801Z,8.60
2019-01-16T01:23:49.471Z,8.60
2019-01-16T01:26:42.467Z,8.60
2019-01-16T01:29:28.144Z,8.60
2019-01-16T01:32:16.058Z,8.50
2019-01-16T01:35:17.635Z,8.60
2019-01-16T01:38:05.551Z,8.50
2019-01-16T01:41:06.848Z,8.60
2019-01-16T01:43:51.717Z,8.60
2019-01-16T01:46:40.929Z,8.60
2019-01-16T01:49:30.326Z,8.60
2019-01-16T01:52:18.258Z,8.60
2019-01-16T01:55:12.985Z,8.50
2019-01-16T01:58:01.197Z,8.60
2019-01-16T02:01:10.133Z,8.60
2019-01-16T02:03:59.455Z,8.60
2019-01-16T02:06:47.419Z,8.60
2019-01-16T02:09:42.595Z,8.60
2019-01-16T02:12:22.775Z,8.60
2019-01-16T02:15:08.106Z,8.60
2019-01-16T02:18:02.448Z,8.60
2019-01-16T02:20:47.843Z,8.60
2019-01-16T02:23:36.088Z,8.60
2019-01-16T02:26:25.559Z,8.60
2019-01-16T02:29:19.566Z,8.60
2019-01-16T02:32:07.864Z,8.60
2019-01-16T02:34:55.825Z,8.60
2019-01-16T02:37:45.315Z,8.60
2019-01-16T02:40:37.951Z,8.50
2019-01-16T02:43:27.523Z,8.50
2019-01-16T02:46:20.084Z,8.50
2019-01-16T02:48:56.521Z,8.50
2019-01-16T02:51:38.763Z,8.50
2019-01-16T02:54:34.557Z,8.50
2019-01-16T02:57:23.051Z,8.60
2019-01-16T03:00:06.846Z,8.50
2019-01-16T03:02:56.648Z,8.50
2019-01-16T03:05:45.944Z,8.50
2019-01-16T03:08:32.663Z,8.50
2019-01-16T03:11:20.761Z,8.50
2019-01-16T03:14:13.097Z,8.50
2019-01-16T03:16:53.357Z,8.50
2019-01-16T03:19:38.851Z,8.50
2019-01-16T03:22:40.299Z,8.40
2019-01-16T03:25:34.134Z,8.40
2019-01-16T03:28:12.900Z,8.50
2019-01-16T03:31:18.999Z,8.40
2019-01-16T03:34:06.998Z,8.40
2019-01-16T03:36:56.348Z,8.40
2019-01-16T03:39:58.925Z,8.50
2019-01-16T03:42:54.373Z,8.40
2019-01-16T03:45:46.739Z,8.40
2019-01-16T03:48:37.957Z,8.40
2019-01-16T03:51:24.942Z,8.40
2019-01-16T03:54:08.633Z,8.40
2019-01-16T03:57:04.345Z,8.40
2019-01-16T03:59:52.437Z,8.40
2019-01-16T04:02:30.900Z,8.40
2019-01-16T04:05:26.303Z,8.40
2019-01-16T04:08:33.852Z,8.40
2019-01-16T04:11:23.335Z,8.40
2019-01-16T04:14:22.791Z,8.40
2019-01-16T04:17:09.786Z,8.40
2019-01-16T04:20:04.823Z,8.40
2019-01-16T04:22:42.008Z,8.40
2019-01-16T04:25:30.216Z,8.40
2019-01-16T04:28:18.061Z,8.30
2019-01-16T04:31:06.367Z,8.40
2019-01-16T04:33:47.465Z,8.40
2019-01-16T04:36:42.221Z,8.40
2019-01-16T04:39:31.637Z,8.30
2019-01-16T04:42:13.161Z,8.30
2019-01-16T04:45:01.108Z,8.30
2019-01-16T04:48:06.556Z,8.40
2019-01-16T04:51:07.983Z,8.30
2019-01-16T04:53:56.017Z,8.30
2019-01-16T04:56:49.717Z,8.30
2019-01-16T04:59:44.889Z,8.30
2019-01-16T05:02:34.218Z,8.30
2019-01-16T05:05:41.918Z,8.30
2019-01-16T05:08:43.395Z,8.30
2019-01-16T05:11:31.605Z,8.30
2019-01-16T05:14:19.788Z,8.30
2019-01-16T05:17:15.205Z,8.30
2019-01-16T05:20:09.426Z,8.30
2019-01-16T05:23:02.678Z,8.30
2019-01-16T05:25:52.716Z,8.30
2019-01-16T05:28:38.131Z,8.40
2019-01-16T05:31:30.470Z,8.40
2019-01-16T05:34:26.033Z,8.40
2019-01-16T05:37:18.271Z,8.30
2019-01-16T05:40:10.269Z,8.30
2019-01-16T05:43:05.819Z,8.30
2019-01-16T05:45:53.147Z,8.30
2019-01-16T05:48:51.536Z,8.30
2019-01-16T05:51:34.763Z,8.20
2019-01-16T05:54:23.084Z,8.20
2019-01-16T05:57:15.868Z,8.20
2019-01-16T06:00:03.653Z,8.20
2019-01-16T06:02:59.184Z,8.20
2019-01-16T06:05:47.420Z,8.20
2019-01-16T06:08:36.655Z,8.20
2019-01-16T06:11:24.764Z,8.20
2019-01-16T06:14:14.216Z,8.20
2019-01-16T06:17:16.031Z,8.20
2019-01-16T06:20:05.277Z,8.20
2019-01-16T06:22:52.709Z,8.20
2019-01-16T06:25:54.389Z,8.20
2019-01-16T06:28:48.696Z,8.20
2019-01-16T06:31:36.579Z,8.20
2019-01-16T06:34:36.332Z,8.20
2019-01-16T06:37:18.259Z,8.20
2019-01-16T06:40:04.502Z,8.20
2019-01-16T06:43:03.036Z,8.30
2019-01-16T06:45:51.024Z,8.30
2019-01-16T06:48:30.068Z,8.30
2019-01-16T06:51:18.191Z,8.30
2019-01-16T06:54:16.479Z,8.20
2019-01-16T06:57:05.469Z,8.20
2019-01-16T07:00:00.822Z,8.10
2019-01-16T07:02:56.093Z,8.10
2019-01-16T07:05:43.090Z,8.10
2019-01-16T07:08:32.016Z,8.00
2019-01-16T07:11:24.015Z,8.00
2019-01-16T07:14:22.401Z,8.00
2019-01-16T07:17:14.656Z,8.00
2019-01-16T07:20:12.840Z,7.90
2019-01-16T07:23:01.115Z,7.90
2019-01-16T07:25:49.070Z,7.90
2019-01-16T07:28:41.135Z,7.90
2019-01-16T07:31:42.731Z,7.90
2019-01-16T07:34:19.921Z,7.80
2019-01-16T07:37:13.232Z,7.80
2019-01-16T07:40:08.584Z,7.70
2019-01-16T07:43:00.971Z,7.70
2019-01-16T07:46:02.677Z,7.70
2019-01-16T07:48:51.622Z,7.70
2019-01-16T07:51:39.838Z,7.60
2019-01-16T07:54:32.170Z,7.60
2019-01-16T07:57:27.505Z,7.50
2019-01-16T08:00:32.209Z,7.60
2019-01-16T08:03:21.800Z,7.50
2019-01-16T08:06:09.942Z,7.50
2019-01-16T08:09:14.136Z,7.40
2019-01-16T08:12:03.421Z,7.40
2019-01-16T08:14:47.090Z,7.40
2019-01-16T08:17:31.102Z,7.40
2019-01-16T08:20:29.507Z,7.40
2019-01-16T08:23:17.591Z,7.40
2019-01-16T08:25:58.612Z,7.40
2019-01-16T08:28:52.568Z,7.40
2019-01-16T08:31:48.135Z,7.40
2019-01-16T08:34:43.472Z,7.50
2019-01-16T08:37:35.726Z,7.50
2019-01-16T08:40:35.183Z,7.40
2019-01-16T08:43:24.855Z,7.40
2019-01-16T08:46:17.017Z,7.40
2019-01-16T08:49:20.980Z,7.40
2019-01-16T08:52:08.911Z,7.40
2019-01-16T08:54:58.375Z,7.30
2019-01-16T08:57:46.548Z,7.30
2019-01-16T09:00:33.810Z,7.30
2019-01-16T09:03:21.964Z,7.30
2019-01-16T09:06:15.247Z,7.20
2019-01-16T09:09:20.122Z,7.20
2019-01-16T09:12:08.102Z,7.30
2019-01-16T09:15:15.678Z,7.20
2019-01-16T09:18:02.098Z,7.20
2019-01-16T09:20:58.308Z,7.20
2019-01-16T09:23:46.806Z,7.20
2019-01-16T09:26:36.140Z,7.20
2019-01-16T09:29:25.540Z,7.20
2019-01-16T09:32:13.538Z,7.20
2019-01-16T09:35:02.902Z,7.20
2019-01-16T09:37:48.100Z,7.20
2019-01-16T09:40:37.378Z,7.20
2019-01-16T09:43:25.931Z,7.20
2019-01-16T09:46:14.096Z,7.20
2019-01-16T09:49:03.475Z,7.20
2019-01-16T09:52:02.198Z,7.20
2019-01-16T09:54:50.455Z,7.20
2019-01-16T09:57:48.989Z,7.20
2019-01-16T10:00:52.517Z,7.20
2019-01-16T10:03:47.876Z,7.10
2019-01-16T10:06:49.461Z,7.10
2019-01-16T10:09:27.770Z,7.10
2019-01-16T10:12:12.656Z,7.10
2019-01-16T10:15:00.787Z,7.10
2019-01-16T10:18:04.572Z,7.10
2019-01-16T10:20:55.824Z,7.10
2019-01-16T10:23:43.643Z,7.10
2019-01-16T10:26:31.770Z,7.10
2019-01-16T10:29:15.864Z,7.10
2019-01-16T10:32:05.188Z,7.10
2019-01-16T10:34:54.901Z,7.10
2019-01-16T10:37:44.280Z,7.00
2019-01-16T10:40:41.154Z,7.00
2019-01-16T10:43:30.551Z,7.00
2019-01-16T10:46:18.783Z,7.00
2019-01-16T10:49:15.837Z,7.00
2019-01-16T10:52:04.027Z,7.00
2019-01-16T10:54:52.217Z,7.00
2019-01-16T10:57:37.151Z,7.00
2019-01-16T11:00:34.597Z,7.00
2019-01-16T11:03:19.437Z,7.00
2019-01-16T11:06:06.151Z,7.00
2019-01-16T11:09:07.917Z,7.00
2019-01-16T11:11:57.711Z,7.00
2019-01-16T11:14:46.095Z,7.10
2019-01-16T11:17:44.226Z,7.10
2019-01-16T11:20:36.905Z,7.10
2019-01-16T11:23:44.602Z,7.10
2019-01-16T11:26:28.401Z,7.10
2019-01-16T11:29:32.916Z,7.00
2019-01-16T11:32:20.104Z,7.10
2019-01-16T11:35:03.586Z,7.10
2019-01-16T11:37:43.422Z,7.10
2019-01-16T11:40:33.466Z,7.00
2019-01-16T11:43:22.662Z,7.00
2019-01-16T11:46:12.228Z,7.00
2019-01-16T11:49:14.009Z,7.00
2019-01-16T11:52:03.393Z,7.10
2019-01-16T11:55:11.280Z,7.10
2019-01-16T11:58:01.030Z,7.10
2019-01-16T12:00:59.974Z,7.20
2019-01-16T12:03:52.438Z,7.20
2019-01-16T12:06:41.904Z,7.20
2019-01-16T12:09:35.615Z,7.20
2019-01-16T12:12:28.164Z,7.10
2019-01-16T12:15:17.722Z,7.10
2019-01-16T12:18:16.018Z,7.10
2019-01-16T12:20:58.605Z,7.10
2019-01-16T12:24:07.715Z,7.00
2019-01-16T12:27:08.999Z,7.00
2019-01-16T12:30:07.588Z,7.00
2019-01-16T12:33:03.007Z,7.00
2019-01-16T12:35:51.918Z,7.00
2019-01-16T12:38:41.533Z,7.00
2019-01-16T12:41:35.547Z,7.00
2019-01-16T12:44:40.448Z,7.00
2019-01-16T12:47:23.387Z,7.00
2019-01-16T12:50:11.734Z,7.00
2019-01-16T12:52:58.239Z,7.00
2019-01-16T12:55:51.987Z,7.00
2019-01-16T12:58:40.117Z,7.00
2019-01-16T13:01:30.928Z,7.00
2019-01-16T13:04:23.315Z,6.90
2019-01-16T13:07:18.905Z,6.90
2019-01-16T13:10:07.068Z,7.00
2019-01-16T13:12:59.574Z,6.90
2019-01-16T13:15:47.483Z,6.90
2019-01-16T13:18:30.077Z,6.90
2019-01-16T13:21:28.691Z,6.90
2019-01-16T13:24:21.301Z,6.90
2019-01-16T13:27:26.118Z,6.90
2019-01-16T13:30:24.572Z,6.90
2019-01-16T13:33:13.214Z,6.90
2019-01-16T13:36:01.444Z,6.90
2019-01-16T13:38:48.674Z,6.90
2019-01-16T13:41:50.185Z,6.90
2019-01-16T13:44:34.966Z,6.90
2019-01-16T13:47:36.489Z,6.90
2019-01-16T13:50:36.465Z,6.90
2019-01-16T13:53:34.867Z,6.90
2019-01-16T13:56:37.836Z,6.90
2019-01-16T13:59:39.330Z,6.90
2019-01-16T14:02:27.352Z,6.90
2019-01-16T14:05:15.290Z,6.90
2019-01-16T14:08:05.229Z,6.90
2019-01-16T14:10:53.101Z,6.90
2019-01-16T14:13:42.448Z,6.90
2019-01-16T14:16:29.118Z,6.90
2019-01-16T14:19:33.420Z,6.90
2019-01-16T14:22:30.594Z,6.90
2019-01-16T14:25:28.975Z,6.90
2019-01-16T14:28:17.212Z,6.90
2019-01-16T14:31:06.904Z,6.90
2019-01-16T14:33:55.131Z,6.90
2019-01-16T14:37:02.540Z,6.90
2019-01-16T14:39:49.988Z,6.90
2019-01-16T14:42:42.241Z,6.90
2019-01-16T14:45:40.420Z,6.90
2019-01-16T14:48:31.025Z,6.90
2019-01-16T14:51:23.403Z,6.90
2019-01-16T14:54:15.889Z,6.90
2019-01-16T14:57:11.002Z,6.90
2019-01-16T15:00:00.257Z,6.90
2019-01-16T15:02:41.074Z,6.80
2019-01-16T15:05:37.910Z,6.80
2019-01-16T15:08:22.259Z,6.80
2019-01-16T15:11:15.125Z,6.80
2019-01-16T15:14:05.810Z,6.80
2019-01-16T15:17:01.276Z,6.80
2019-01-16T15:19:47.588Z,6.80
2019-01-16T15:22:38.453Z,6.80
2019-01-16T15:25:30.807Z,6.80
2019-01-16T15:28:18.941Z,6.80
2019-01-16T15:31:13.193Z,6.80
2019-01-16T15:34:39.364Z,6.80
2019-01-16T15:44:27.019Z,6.70
2019-01-16T15:48:29.701Z,6.80
2019-01-16T15:51:40.367Z,6.70
2019-01-16T15:54:32.268Z,6.70
2019-01-16T15:57:21.693Z,6.80
2019-01-16T16:00:09.838Z,6.70
2019-01-16T16:02:52.345Z,6.80
2019-01-16T16:05:41.184Z,6.80
2019-01-16T16:08:29.467Z,6.80
2019-01-16T16:11:25.471Z,6.80
2019-01-16T16:14:14.883Z,6.80
2019-01-16T16:17:25.393Z,6.80
2019-01-16T16:20:21.500Z,6.80
2019-01-16T16:23:17.936Z,6.80
2019-01-16T16:26:27.625Z,6.80
2019-01-16T16:29:13.039Z,6.80
2019-01-16T16:32:05.400Z,6.80
2019-01-16T16:34:55.813Z,6.80
2019-01-16T16:37:51.705Z,6.70
2019-01-16T16:40:36.785Z,6.70
2019-01-16T16:43:33.145Z,6.60
2019-01-16T16:46:34.455Z,6.60
2019-01-16T16:49:25.497Z,6.60
2019-01-16T16:52:25.909Z,6.60
2019-01-16T16:55:12.076Z,6.60
2019-01-16T16:58:02.608Z,6.60
2019-01-16T17:00:50.641Z,6.50
2019-01-16T17:03:29.576Z,6.50
2019-01-16T17:06:27.920Z,6.40
2019-01-16T17:09:17.267Z,6.40
2019-01-16T17:12:08.403Z,6.30
2019-01-16T17:14:56.506Z,6.20
2019-01-16T17:17:49.132Z,6.20
2019-01-16T17:20:44.690Z,6.20
2019-01-16T17:23:34.085Z,6.20
2019-01-16T17:26:23.521Z,6.20
2019-01-16T17:29:11.683Z,6.20
2019-01-16T17:32:13.367Z,6.20
2019-01-16T17:35:18.053Z,6.20
2019-01-16T17:38:13.715Z,6.20
2019-01-16T17:41:03.080Z,6.20
2019-01-16T17:44:04.709Z,6.20
2019-01-16T17:46:55.906Z,6.20
2019-01-16T17:49:48.025Z,6.20
2019-01-16T17:52:49.518Z,6.20
2019-01-16T17:55:37.532Z,6.10
2019-01-16T17:58:22.080Z,6.10
2019-01-16T18:01:15.094Z,6.10
2019-01-16T18:03:57.086Z,6.10
2019-01-16T18:06:45.302Z,6.10
2019-01-16T18:09:46.341Z,6.10
2019-01-16T18:12:45.369Z,6.10
2019-01-16T18:15:41.356Z,6.10
2019-01-16T18:18:45.848Z,6.10
2019-01-16T18:21:41.663Z,6.10
2019-01-16T18:24:37.045Z,6.10
2019-01-16T18:27:26.562Z,6.10
2019-01-16T18:30:09.872Z,6.10
2019-01-16T18:33:03.170Z,6.20
2019-01-16T18:35:48.813Z,6.20
2019-01-16T18:38:39.958Z,6.10
2019-01-16T18:41:32.344Z,6.10
2019-01-16T18:44:27.616Z,6.10
2019-01-16T18:47:15.496Z,6.10
2019-01-16T18:50:05.083Z,6.10
2019-01-16T18:52:55.777Z,6.10
2019-01-16T18:55:43.803Z,6.10
2019-01-16T18:58:27.303Z,6.10
2019-01-16T19:01:11.998Z,6.10
2019-01-16T19:03:50.397Z,6.10
2019-01-16T19:06:37.559Z,6.10
2019-01-16T19:09:31.536Z,6.10
2019-01-16T19:12:39.229Z,6.10
2019-01-16T19:15:21.023Z,6.10
2019-01-16T19:18:10.441Z,6.10
2019-01-16T19:21:05.798Z,6.10
2019-01-16T19:23:53.804Z,6.10
2019-01-16T19:26:41.853Z,6.10
2019-01-16T19:29:50.748Z,6.20
2019-01-16T19:32:36.405Z,6.20
2019-01-16T19:35:27.249Z,6.30
2019-01-16T19:38:28.606Z,6.30
2019-01-16T19:41:29.911Z,6.30
2019-01-16T19:44:17.947Z,6.30
2019-01-16T19:47:06.472Z,6.40
2019-01-16T19:50:03.244Z,6.40
2019-01-16T19:52:47.563Z,6.40
2019-01-16T19:55:35.809Z,6.40
2019-01-16T19:58:28.540Z,6.40
2019-01-16T20:01:21.956Z,6.30
2019-01-16T20:04:09.725Z,6.40
2019-01-16T20:07:14.350Z,6.40
2019-01-16T20:10:06.792Z,6.30
2019-01-16T20:12:56.133Z,6.30
2019-01-16T20:15:46.305Z,6.30
2019-01-16T20:18:26.041Z,6.30
2019-01-16T20:21:32.049Z,6.30
2019-01-16T20:24:21.436Z,6.20
2019-01-16T20:27:09.750Z,6.20
2019-01-16T20:30:08.254Z,6.10
2019-01-16T20:32:58.360Z,6.10
2019-01-16T20:35:42.345Z,6.00
2019-01-16T20:38:34.908Z,5.90
2019-01-16T20:41:23.439Z,5.90
2019-01-16T20:44:19.327Z,5.80
2019-01-16T20:46:57.970Z,5.80
2019-01-16T20:49:50.371Z,5.80
2019-01-16T20:52:42.989Z,5.70
2019-01-16T20:55:32.305Z,5.70
2019-01-16T20:58:24.494Z,5.60
2019-01-16T21:01:06.836Z,5.60
2019-01-16T21:04:02.262Z,5.60
2019-01-16T21:06:54.945Z,5.60
2019-01-16T21:09:46.306Z,5.60
2019-01-16T21:12:35.555Z,5.60
2019-01-16T21:15:28.555Z,5.50
2019-01-16T21:18:19.684Z,5.40
2019-01-16T21:21:13.505Z,5.30
2019-01-16T21:24:12.093Z,5.30
2019-01-16T21:27:07.779Z,5.30
2019-01-16T21:29:55.924Z,5.30
2019-01-16T21:32:43.494Z,5.30
2019-01-16T21:35:25.851Z,5.30
2019-01-16T21:38:14.106Z,5.20
2019-01-16T21:41:02.255Z,5.30
2019-01-16T21:44:03.600Z,5.20
2019-01-16T21:46:52.818Z,5.10
2019-01-16T21:49:42.015Z,5.10
2019-01-16T21:52:43.184Z,5.00
2019-01-16T21:55:39.185Z,5.00
2019-01-16T21:58:33.029Z,5.00
2019-01-16T22:01:12.874Z,4.90
2019-01-16T22:04:02.358Z,4.90
2019-01-16T22:06:51.422Z,4.90
2019-01-16T22:12:23.840Z,4.90
2019-01-16T22:15:13.155Z,4.80
2019-01-16T22:18:10.227Z,4.80
2019-01-16T22:21:08.621Z,4.80
2019-01-16T22:23:48.669Z,4.80
2019-01-16T22:26:47.390Z,4.80
2019-01-16T22:29:42.307Z,4.80
2019-01-16T22:32:21.240Z,4.80
2019-01-16T22:35:13.359Z,4.80
2019-01-16T22:38:05.506Z,4.80
2019-01-16T22:40:53.452Z,4.80
2019-01-16T22:43:35.817Z,4.80
2019-01-16T22:46:23.981Z,4.80
2019-01-16T22:49:13.340Z,4.80
2019-01-16T22:52:05.299Z,4.90
2019-01-16T22:55:04.435Z,4.80
2019-01-16T22:57:44.053Z,4.90
2019-01-16T23:00:52.662Z,4.80
2019-01-16T23:03:40.783Z,4.90
2019-01-16T23:06:28.968Z,4.80
2019-01-16T23:09:14.238Z,4.80
2019-01-16T23:12:06.195Z,4.80
2019-01-16T23:14:55.494Z,4.80
2019-01-16T23:17:50.022Z,4.90
2019-01-16T23:20:51.824Z,4.90
2019-01-16T23:23:30.782Z,4.90
2019-01-16T23:26:29.804Z,5.00
2019-01-16T23:29:07.873Z,5.00
2019-01-16T23:31:56.052Z,5.00
2019-01-16T23:34:54.312Z,5.00
2019-01-16T23:37:45.496Z,5.00
2019-01-16T23:40:34.723Z,5.10
2019-01-16T23:43:38.034Z,5.30
2019-01-16T23:46:45.486Z,5.30
2019-01-16T23:49:34.753Z,5.40
2019-01-16T23:52:14.068Z,5.60
2019-01-16T23:55:12.374Z,5.80
2019-01-16T23:57:58.904Z,6.00
